Terminal Aerodrome Forecast
Issued by NWS New Orleans/Baton Rouge, LA

Home | Current Version | Previous Version | Text Only | Print | Product List | Glossary On
Versions: 1 2 3 4 5 6 7 8 9 10 11 12 13 14 15 16 17 18 19 20 21 22 23
000
FTUS44 KLIX 051125
TAFNEW
TAF
KNEW 051125Z 0512/0612 00000KT P6SM BKN110
      TEMPO 0513/0517 P6SM -RA SCT040 OVC120
     FM051900 13004KT P6SM VCTS SCT040CB BKN250
      TEMPO 0519/0522 VRB15G20KT TSRA BKN020CB OVC060
     FM060000 16005KT P6SM OVC250=

USA.gov is the U.S. government's official web portal to all federal, state and local government web resources and services.